createdAt,value
2023-04-23T00:01:59.209Z,99.90
2023-04-23T00:04:26.755Z,99.90
2023-04-23T00:06:54.770Z,99.90
2023-04-23T00:09:23.663Z,99.90
2023-04-23T00:11:50.549Z,99.90
2023-04-23T00:14:17.368Z,99.90
2023-04-23T00:16:44.265Z,99.90
2023-04-23T00:19:10.904Z,99.90
2023-04-23T00:21:37.513Z,99.90
2023-04-23T00:24:04.361Z,99.90
2023-04-23T00:26:30.950Z,99.90
2023-04-23T00:28:57.573Z,99.90
2023-04-23T00:31:24.306Z,99.90
2023-04-23T00:33:51.413Z,99.90
2023-04-23T00:36:17.990Z,99.90
2023-04-23T00:38:44.850Z,99.90
2023-04-23T00:41:11.823Z,99.90
2023-04-23T00:43:38.512Z,99.90
2023-04-23T00:46:05.664Z,99.90
2023-04-23T00:48:34.284Z,99.90
2023-04-23T00:51:04.842Z,99.90
2023-04-23T00:53:31.920Z,99.90
2023-04-23T00:55:59.870Z,99.90
2023-04-23T00:58:26.637Z,99.90
2023-04-23T01:00:53.457Z,99.90
2023-04-23T01:03:22.817Z,99.90
2023-04-23T01:05:50.189Z,99.90
2023-04-23T01:08:18.220Z,99.90
2023-04-23T01:10:45.872Z,99.90
2023-04-23T01:13:13.879Z,99.90
2023-04-23T01:15:40.960Z,99.90
2023-04-23T01:18:07.877Z,99.90
2023-04-23T01:20:35.639Z,99.90
2023-04-23T01:23:03.559Z,99.90
2023-04-23T01:25:30.311Z,99.90
2023-04-23T01:27:58.140Z,99.90
2023-04-23T01:30:28.819Z,99.90
2023-04-23T01:32:56.725Z,99.90
2023-04-23T01:35:23.926Z,99.90
2023-04-23T01:37:54.176Z,99.90
2023-04-23T01:40:21.186Z,99.90
2023-04-23T01:42:51.095Z,99.90
2023-04-23T01:45:20.062Z,99.90
2023-04-23T01:47:47.922Z,99.90
2023-04-23T01:50:14.985Z,99.90
2023-04-23T01:52:42.166Z,99.90
2023-04-23T01:55:09.605Z,99.90
2023-04-23T01:57:36.708Z,99.90
2023-04-23T02:00:11.129Z,99.90
2023-04-23T02:02:39.606Z,99.90
2023-04-23T02:05:20.888Z,99.90
2023-04-23T02:07:51.910Z,99.90
2023-04-23T02:10:18.764Z,99.90
2023-04-23T02:12:45.567Z,99.90
2023-04-23T02:15:12.917Z,99.90
2023-04-23T02:17:42.684Z,99.90
2023-04-23T02:20:10.999Z,99.90
2023-04-23T02:22:39.368Z,99.90
2023-04-23T02:25:07.358Z,99.90
2023-04-23T02:27:35.063Z,99.90
2023-04-23T02:30:02.025Z,99.90
2023-04-23T02:32:28.854Z,99.90
2023-04-23T02:34:56.113Z,99.90
2023-04-23T02:37:22.707Z,99.90
2023-04-23T02:39:49.329Z,99.90
2023-04-23T02:42:16.459Z,99.90
2023-04-23T02:44:43.545Z,99.90
2023-04-23T02:47:10.188Z,99.90
2023-04-23T02:49:36.851Z,99.90
2023-04-23T02:52:04.135Z,99.90
2023-04-23T02:54:32.363Z,99.90
2023-04-23T02:56:59.232Z,99.90
2023-04-23T02:59:26.157Z,99.90
2023-04-23T03:01:52.839Z,99.90
2023-04-23T03:04:20.393Z,99.90
2023-04-23T03:06:47.865Z,99.90
2023-04-23T03:09:15.175Z,99.90
2023-04-23T03:11:41.866Z,99.90
2023-04-23T03:14:08.506Z,99.90
2023-04-23T03:16:35.349Z,99.90
2023-04-23T03:19:03.096Z,99.90
2023-04-23T03:21:29.780Z,99.90
2023-04-23T03:23:56.864Z,99.90
2023-04-23T03:26:23.480Z,99.90
2023-04-23T03:28:50.108Z,99.90
2023-04-23T03:31:16.855Z,99.90
2023-04-23T03:33:43.517Z,99.90
2023-04-23T03:36:10.181Z,99.90
2023-04-23T03:38:37.545Z,99.90
2023-04-23T03:41:04.687Z,99.90
2023-04-23T03:43:31.392Z,99.90
2023-04-23T03:45:58.085Z,99.90
2023-04-23T03:48:24.869Z,99.90
2023-04-23T03:50:51.509Z,99.90
2023-04-23T03:53:18.106Z,99.90
2023-04-23T03:55:44.780Z,99.90
2023-04-23T03:58:11.396Z,99.90
2023-04-23T04:00:38.008Z,99.90
2023-04-23T04:03:04.802Z,99.90
2023-04-23T04:05:31.903Z,99.90
2023-04-23T04:07:58.527Z,99.90
2023-04-23T04:10:25.200Z,99.90
2023-04-23T04:12:51.882Z,99.90
2023-04-23T04:15:20.724Z,99.90
2023-04-23T04:17:47.732Z,99.90
2023-04-23T04:20:14.497Z,99.90
2023-04-23T04:22:41.202Z,99.90
2023-04-23T04:25:08.365Z,99.90
2023-04-23T04:27:35.485Z,99.90
2023-04-23T04:30:03.066Z,99.90
2023-04-23T04:32:29.735Z,99.90
2023-04-23T04:34:57.611Z,99.90
2023-04-23T04:37:24.757Z,99.90
2023-04-23T04:39:51.396Z,99.90
2023-04-23T04:42:18.031Z,99.90
2023-04-23T04:44:44.742Z,99.90
2023-04-23T04:47:13.366Z,99.90
2023-04-23T04:49:39.988Z,99.90
2023-04-23T04:52:06.646Z,99.90
2023-04-23T04:54:33.293Z,99.90
2023-04-23T04:56:59.880Z,99.90
2023-04-23T04:59:26.834Z,99.90
2023-04-23T05:01:53.612Z,99.90
2023-04-23T05:04:20.271Z,99.90
2023-04-23T05:06:46.862Z,99.90
2023-04-23T05:09:13.626Z,99.90
2023-04-23T05:11:41.108Z,99.90
2023-04-23T05:14:07.717Z,99.90
2023-04-23T05:16:34.686Z,99.90
2023-04-23T05:19:01.363Z,99.90
2023-04-23T05:21:28.180Z,99.90
2023-04-23T05:23:55.461Z,99.90
2023-04-23T05:26:22.221Z,99.90
2023-04-23T05:28:48.952Z,99.90
2023-04-23T05:31:15.833Z,99.90
2023-04-23T05:33:50.131Z,99.90
2023-04-23T05:36:17.855Z,99.90
2023-04-23T05:38:44.524Z,99.90
2023-04-23T05:41:11.360Z,99.90
2023-04-23T05:43:37.971Z,99.90
2023-04-23T05:46:07.311Z,99.90
2023-04-23T05:48:34.554Z,99.90
2023-04-23T05:51:01.375Z,99.90
2023-04-23T05:53:28.674Z,99.90
2023-04-23T05:55:55.300Z,99.90
2023-04-23T05:58:22.142Z,99.90
2023-04-23T06:00:49.965Z,99.90
2023-04-23T06:03:16.855Z,99.90
2023-04-23T06:05:43.728Z,99.90
2023-04-23T06:08:10.469Z,99.90
2023-04-23T06:10:37.161Z,99.90
2023-04-23T06:13:03.865Z,99.90
2023-04-23T06:15:30.792Z,99.90
2023-04-23T06:17:57.579Z,99.90
2023-04-23T06:20:26.084Z,99.90
2023-04-23T06:22:52.846Z,99.90
2023-04-23T06:25:19.554Z,99.90
2023-04-23T06:27:46.359Z,99.90
2023-04-23T06:30:13.210Z,99.90
2023-04-23T06:32:39.994Z,99.90
2023-04-23T06:35:08.098Z,99.90
2023-04-23T06:37:35.222Z,99.90
2023-04-23T06:40:01.866Z,99.90
2023-04-23T06:42:28.554Z,99.90
2023-04-23T06:44:55.308Z,99.90
2023-04-23T06:47:21.953Z,99.90
2023-04-23T06:49:48.564Z,99.90
2023-04-23T06:52:16.022Z,99.90
2023-04-23T06:54:42.862Z,99.90
2023-04-23T06:57:09.906Z,99.90
2023-04-23T06:59:36.508Z,99.90
2023-04-23T07:02:03.156Z,99.90
2023-04-23T07:04:30.060Z,99.90
2023-04-23T07:06:57.306Z,99.90
2023-04-23T07:09:23.920Z,99.90
2023-04-23T07:11:51.045Z,99.90
2023-04-23T07:14:17.709Z,99.90
2023-04-23T07:16:44.481Z,99.90
2023-04-23T07:19:11.239Z,99.90
2023-04-23T07:21:38.038Z,99.90
2023-04-23T07:24:07.257Z,99.90
2023-04-23T07:26:34.826Z,99.90
2023-04-23T07:29:02.010Z,99.90
2023-04-23T07:31:28.757Z,99.90
2023-04-23T07:33:56.223Z,99.90
2023-04-23T07:36:23.126Z,99.90
2023-04-23T07:38:50.887Z,99.90
2023-04-23T07:41:17.874Z,99.90
2023-04-23T07:43:44.536Z,99.90
2023-04-23T07:46:11.186Z,99.90
2023-04-23T07:48:37.820Z,99.90
2023-04-23T07:51:06.385Z,99.90
2023-04-23T07:53:33.376Z,99.90
2023-04-23T07:56:00.641Z,99.90
2023-04-23T07:58:27.346Z,99.90
2023-04-23T08:00:54.105Z,99.90
2023-04-23T08:03:21.186Z,99.90
2023-04-23T08:05:48.153Z,99.90
2023-04-23T08:08:14.904Z,99.90
2023-04-23T08:10:41.901Z,99.90
2023-04-23T08:13:08.839Z,99.90
2023-04-23T08:15:35.802Z,99.90
2023-04-23T08:18:04.143Z,99.90
2023-04-23T08:20:32.151Z,99.90
2023-04-23T08:22:58.855Z,99.90
2023-04-23T08:25:25.684Z,99.90
2023-04-23T08:27:52.470Z,99.90
2023-04-23T08:30:19.288Z,99.90
2023-04-23T08:32:50.968Z,99.90
2023-04-23T08:35:17.951Z,99.90
2023-04-23T08:37:44.670Z,99.90
2023-04-23T08:40:11.899Z,99.90
2023-04-23T08:42:47.473Z,99.90
2023-04-23T08:45:14.176Z,99.90
2023-04-23T08:47:45.099Z,99.90
2023-04-23T08:50:14.466Z,99.90
2023-04-23T08:52:45.935Z,99.90
2023-04-23T08:55:15.014Z,99.90
2023-04-23T08:57:42.464Z,99.90
2023-04-23T09:00:11.558Z,99.90
2023-04-23T09:02:41.561Z,99.90
2023-04-23T09:05:08.958Z,99.90
2023-04-23T09:07:36.894Z,99.90
2023-04-23T09:10:04.907Z,99.90
2023-04-23T09:12:32.541Z,99.90
2023-04-23T09:14:59.625Z,99.90
2023-04-23T09:17:29.386Z,99.90
2023-04-23T09:19:56.199Z,99.90
2023-04-23T09:23:01.500Z,99.90
2023-04-23T09:25:28.095Z,99.90
2023-04-23T09:27:58.180Z,99.90
2023-04-23T09:30:26.426Z,99.90
2023-04-23T09:32:53.532Z,99.90
2023-04-23T09:35:20.739Z,99.90
2023-04-23T09:37:49.910Z,99.90
2023-04-23T09:40:24.904Z,99.90
2023-04-23T09:42:54.269Z,99.90
2023-04-23T09:45:21.445Z,99.90
2023-04-23T09:47:56.334Z,99.90
2023-04-23T09:50:43.407Z,99.90
2023-04-23T09:53:10.722Z,99.90
2023-04-23T09:55:39.154Z,99.90
2023-04-23T09:58:07.665Z,99.90
2023-04-23T10:00:36.659Z,99.90
2023-04-23T10:03:04.239Z,99.90
2023-04-23T10:05:37.265Z,99.90
2023-04-23T10:08:09.324Z,99.90
2023-04-23T10:10:51.069Z,99.90
2023-04-23T10:13:23.731Z,99.90
2023-04-23T10:15:50.968Z,99.90
2023-04-23T10:18:18.890Z,99.90
2023-04-23T10:20:46.083Z,99.90
2023-04-23T10:23:13.463Z,99.90
2023-04-23T10:25:42.460Z,99.40
2023-04-23T10:28:11.697Z,99.80
2023-04-23T10:30:38.687Z,99.90
2023-04-23T10:33:15.827Z,99.80
2023-04-23T10:35:50.003Z,99.90
2023-04-23T10:38:16.828Z,99.90
2023-04-23T10:40:46.650Z,99.50
2023-04-23T10:43:13.536Z,99.00
2023-04-23T10:45:40.252Z,99.10
2023-04-23T10:48:08.601Z,99.00
2023-04-23T10:50:37.799Z,99.20
2023-04-23T10:53:05.301Z,98.90
2023-04-23T10:55:32.987Z,99.10
2023-04-23T10:58:01.518Z,98.60
2023-04-23T11:00:50.974Z,98.60
2023-04-23T11:03:37.966Z,98.00
2023-04-23T11:06:07.163Z,98.50
2023-04-23T11:08:37.081Z,98.40
2023-04-23T11:11:08.502Z,99.30
2023-04-23T11:13:35.272Z,99.20
2023-04-23T11:16:15.723Z,97.50
2023-04-23T11:19:03.866Z,96.70
2023-04-23T11:22:27.758Z,97.70
2023-04-23T11:24:54.531Z,97.00
2023-04-23T11:27:21.434Z,96.40
2023-04-23T11:29:48.190Z,96.90
2023-04-23T11:32:17.137Z,96.50
2023-04-23T11:34:45.324Z,96.20
2023-04-23T11:37:13.370Z,95.70
2023-04-23T11:39:45.617Z,96.00
2023-04-23T11:42:15.822Z,95.70
2023-04-23T11:44:44.006Z,96.40
2023-04-23T11:47:13.063Z,96.50
2023-04-23T11:49:41.107Z,95.90
2023-04-23T11:52:09.177Z,96.30
2023-04-23T11:54:36.262Z,96.00
2023-04-23T11:57:04.644Z,94.70
2023-04-23T11:59:31.315Z,95.40
2023-04-23T12:01:59.351Z,95.40
2023-04-23T12:04:30.636Z,94.90
2023-04-23T12:06:58.342Z,94.90
2023-04-23T12:09:29.145Z,95.10
2023-04-23T12:11:58.416Z,95.10
2023-04-23T12:14:30.669Z,94.60
2023-04-23T12:16:58.871Z,94.00
2023-04-23T12:19:30.799Z,94.20
2023-04-23T12:21:59.555Z,93.80
2023-04-23T12:24:28.802Z,93.40
2023-04-23T12:27:00.888Z,92.60
2023-04-23T12:29:30.652Z,92.70
2023-04-23T12:31:59.584Z,93.70
2023-04-23T12:34:26.278Z,95.30
2023-04-23T12:36:54.975Z,93.40
2023-04-23T12:39:29.800Z,93.40
2023-04-23T12:42:04.636Z,94.00
2023-04-23T12:44:34.465Z,92.80
2023-04-23T12:47:07.199Z,92.40
2023-04-23T12:49:35.213Z,94.30
2023-04-23T12:52:04.040Z,94.00
2023-04-23T12:54:38.674Z,93.50
2023-04-23T12:57:07.696Z,93.80
2023-04-23T12:59:34.547Z,92.20
2023-04-23T13:02:04.234Z,90.90
2023-04-23T13:04:32.164Z,90.10
2023-04-23T13:06:58.869Z,91.80
2023-04-23T13:09:27.720Z,92.20
2023-04-23T13:11:54.990Z,91.40
2023-04-23T13:14:21.817Z,89.30
2023-04-23T13:16:48.960Z,91.30
2023-04-23T13:19:17.142Z,90.40
2023-04-23T13:21:44.580Z,90.70
2023-04-23T13:24:11.237Z,92.00
2023-04-23T13:26:38.166Z,92.10
2023-04-23T13:29:05.233Z,91.70
2023-04-23T13:31:31.988Z,90.60
2023-04-23T13:33:58.958Z,92.20
2023-04-23T13:36:26.045Z,92.00
2023-04-23T13:38:52.864Z,91.00
2023-04-23T13:41:19.535Z,91.50
2023-04-23T13:43:46.231Z,89.00
2023-04-23T13:46:14.227Z,90.80
2023-04-23T13:48:41.682Z,88.40
2023-04-23T13:51:17.915Z,88.90
2023-04-23T13:53:53.216Z,88.60
2023-04-23T13:56:19.894Z,90.30
2023-04-23T13:58:48.314Z,90.90
2023-04-23T14:01:15.795Z,90.20
2023-04-23T14:03:42.518Z,86.10
2023-04-23T14:06:09.473Z,84.20
2023-04-23T14:08:38.269Z,88.90
2023-04-23T14:11:05.315Z,90.00
2023-04-23T14:13:32.762Z,86.50
2023-04-23T14:16:01.961Z,84.30
2023-04-23T14:18:30.300Z,85.40
2023-04-23T14:20:57.081Z,83.20
2023-04-23T14:23:23.647Z,86.60
2023-04-23T14:26:04.624Z,84.50
2023-04-23T14:28:46.674Z,88.30
2023-04-23T14:31:13.307Z,87.40
2023-04-23T14:33:39.923Z,85.50
2023-04-23T14:36:06.703Z,86.10
2023-04-23T14:38:33.309Z,91.40
2023-04-23T14:41:00.608Z,99.90
2023-04-23T14:43:27.324Z,99.90
2023-04-23T14:45:53.960Z,99.90
2023-04-23T14:48:20.614Z,99.90
2023-04-23T14:50:47.209Z,99.90
2023-04-23T14:53:13.845Z,99.90
2023-04-23T14:55:43.165Z,99.90
2023-04-23T14:58:10.005Z,99.90
2023-04-23T15:00:36.705Z,99.90
2023-04-23T15:03:08.624Z,99.90
2023-04-23T15:05:35.417Z,99.90
2023-04-23T15:08:02.129Z,99.90
2023-04-23T15:10:28.805Z,99.90
2023-04-23T15:13:03.386Z,99.90
2023-04-23T15:15:49.733Z,99.90
2023-04-23T15:18:16.997Z,99.90
2023-04-23T15:20:44.451Z,99.90
2023-04-23T15:23:11.448Z,99.90
2023-04-23T15:25:39.274Z,99.90
2023-04-23T15:28:07.064Z,99.90
2023-04-23T15:30:33.770Z,99.90
2023-04-23T15:33:00.901Z,99.90
2023-04-23T15:35:28.195Z,99.90
2023-04-23T15:37:54.825Z,99.90
2023-04-23T15:40:21.582Z,99.90
2023-04-23T15:42:49.972Z,99.90
2023-04-23T15:45:17.014Z,99.90
2023-04-23T15:47:43.882Z,99.90
2023-04-23T15:50:11.038Z,99.90
2023-04-23T15:52:38.196Z,99.90
2023-04-23T15:55:05.973Z,99.90
2023-04-23T15:57:32.657Z,99.90
2023-04-23T15:59:59.356Z,99.90
2023-04-23T16:02:26.169Z,99.90
2023-04-23T16:04:52.947Z,99.90
2023-04-23T16:07:19.806Z,99.90
2023-04-23T16:09:46.466Z,99.90
2023-04-23T16:12:13.119Z,99.90
2023-04-23T16:14:40.380Z,99.90
2023-04-23T16:17:07.208Z,99.90
2023-04-23T16:19:34.045Z,99.90
2023-04-23T16:22:00.748Z,99.90
2023-04-23T16:24:27.362Z,99.90
2023-04-23T16:26:54.020Z,99.90
2023-04-23T16:29:22.962Z,99.90
2023-04-23T16:31:50.150Z,99.90
2023-04-23T16:34:17.096Z,99.90
2023-04-23T16:36:43.764Z,99.90
2023-04-23T16:39:11.313Z,99.90
2023-04-23T16:41:38.226Z,99.90
2023-04-23T16:44:05.154Z,99.90
2023-04-23T16:46:32.202Z,99.90
2023-04-23T16:48:59.228Z,99.90
2023-04-23T16:51:26.810Z,99.90
2023-04-23T16:53:53.669Z,99.90
2023-04-23T16:56:21.096Z,99.90
2023-04-23T16:58:47.929Z,99.90
2023-04-23T17:01:15.602Z,99.90
2023-04-23T17:03:42.496Z,99.90
2023-04-23T17:06:24.931Z,99.90
2023-04-23T17:08:51.678Z,99.90
2023-04-23T17:11:18.440Z,99.90
2023-04-23T17:13:45.117Z,99.90
2023-04-23T17:16:11.845Z,99.90
2023-04-23T17:18:38.483Z,99.90
2023-04-23T17:21:05.147Z,99.90
2023-04-23T17:23:31.783Z,99.90
2023-04-23T17:25:58.390Z,99.90
2023-04-23T17:28:25.117Z,99.90
2023-04-23T17:30:53.799Z,99.90
2023-04-23T17:33:21.147Z,99.90
2023-04-23T17:35:51.976Z,99.90
2023-04-23T17:38:20.705Z,99.90
2023-04-23T17:40:48.516Z,99.90
2023-04-23T17:43:15.848Z,99.90
2023-04-23T17:45:42.911Z,99.90
2023-04-23T17:48:09.807Z,99.90
2023-04-23T17:50:37.129Z,99.90
2023-04-23T17:53:04.024Z,99.90
2023-04-23T17:55:32.864Z,99.90
2023-04-23T17:58:05.535Z,99.90
2023-04-23T18:00:44.277Z,99.90
2023-04-23T18:03:14.592Z,99.90
2023-04-23T18:05:41.387Z,99.90
2023-04-23T18:08:08.502Z,99.90
2023-04-23T18:10:35.214Z,99.90
2023-04-23T18:13:09.041Z,99.90
2023-04-23T18:15:35.797Z,99.90
2023-04-23T18:18:03.057Z,99.90
2023-04-23T18:20:31.822Z,99.90
2023-04-23T18:22:58.525Z,99.90
2023-04-23T18:25:25.324Z,99.90
2023-04-23T18:27:52.106Z,99.90
2023-04-23T18:30:23.051Z,99.90
2023-04-23T18:32:59.305Z,99.90
2023-04-23T18:35:26.004Z,99.90
2023-04-23T18:38:02.823Z,99.90
2023-04-23T18:40:29.461Z,99.90
2023-04-23T18:42:56.413Z,99.90
2023-04-23T18:45:23.236Z,99.90
2023-04-23T18:47:52.185Z,99.90
2023-04-23T18:50:43.469Z,99.90
2023-04-23T18:53:10.288Z,99.90
2023-04-23T18:55:37.009Z,99.90
2023-04-23T18:58:04.126Z,99.90
2023-04-23T19:00:30.834Z,99.90
2023-04-23T19:02:58.188Z,99.90
2023-04-23T19:05:25.222Z,99.90
2023-04-23T19:07:52.004Z,99.90
2023-04-23T19:10:18.667Z,99.90
2023-04-23T19:12:45.381Z,99.90
2023-04-23T19:15:14.148Z,99.90
2023-04-23T19:17:40.951Z,99.90
2023-04-23T19:20:11.457Z,99.90
2023-04-23T19:22:41.230Z,99.90
2023-04-23T19:25:09.463Z,99.90
2023-04-23T19:27:36.286Z,99.90
2023-04-23T19:30:05.038Z,99.90
2023-04-23T19:32:35.297Z,99.90
2023-04-23T19:35:02.772Z,99.90
2023-04-23T19:37:30.197Z,99.90
2023-04-23T19:39:56.921Z,99.90
2023-04-23T19:42:23.558Z,99.90
2023-04-23T19:44:50.323Z,99.90
2023-04-23T19:47:17.381Z,99.90
2023-04-23T19:49:45.443Z,99.90
2023-04-23T19:52:18.652Z,99.90
2023-04-23T19:54:49.030Z,99.90
2023-04-23T19:57:18.373Z,99.90
2023-04-23T19:59:45.793Z,99.90
2023-04-23T20:02:12.502Z,99.90
2023-04-23T20:04:39.467Z,99.90
2023-04-23T20:07:06.922Z,99.90
2023-04-23T20:09:34.414Z,99.90
2023-04-23T20:12:01.805Z,99.90
2023-04-23T20:14:29.653Z,99.90
2023-04-23T20:16:56.903Z,99.90
2023-04-23T20:19:25.875Z,99.90
2023-04-23T20:21:53.502Z,99.90
2023-04-23T20:24:21.425Z,99.90
2023-04-23T20:26:48.728Z,99.90
2023-04-23T20:29:15.392Z,99.90
2023-04-23T20:31:42.247Z,99.90
2023-04-23T20:34:09.208Z,99.90
2023-04-23T20:36:38.609Z,99.90
2023-04-23T20:39:05.280Z,99.90
2023-04-23T20:41:36.361Z,99.90
2023-04-23T20:44:04.845Z,99.90
2023-04-23T20:46:32.441Z,99.90
2023-04-23T20:49:00.858Z,99.90
2023-04-23T20:51:33.196Z,99.90
2023-04-23T20:54:00.047Z,99.90
2023-04-23T20:56:26.998Z,99.90
2023-04-23T20:58:53.701Z,99.90
2023-04-23T21:01:20.458Z,99.90
2023-04-23T21:03:47.357Z,99.90
2023-04-23T21:06:14.306Z,99.90
2023-04-23T21:08:44.695Z,99.90
2023-04-23T21:11:15.687Z,99.90
2023-04-23T21:13:42.599Z,99.90
2023-04-23T21:16:09.642Z,99.90
2023-04-23T21:18:36.419Z,99.90
2023-04-23T21:21:03.579Z,99.90
2023-04-23T21:23:30.672Z,99.90
2023-04-23T21:25:57.469Z,99.90
2023-04-23T21:28:24.412Z,99.90
2023-04-23T21:31:01.013Z,99.90
2023-04-23T21:33:27.649Z,99.90
2023-04-23T21:35:54.320Z,99.90
2023-04-23T21:38:21.479Z,99.90
2023-04-23T21:40:48.470Z,99.90
2023-04-23T21:43:15.221Z,99.90
2023-04-23T21:45:41.990Z,99.90
2023-04-23T21:48:08.757Z,99.90
2023-04-23T21:50:36.012Z,99.90
2023-04-23T21:53:03.986Z,99.90
2023-04-23T21:55:31.628Z,99.90
2023-04-23T21:58:09.872Z,99.90
2023-04-23T22:00:44.322Z,99.90
2023-04-23T22:03:11.896Z,99.90
2023-04-23T22:05:39.813Z,99.90
2023-04-23T22:08:09.591Z,99.90
2023-04-23T22:10:42.655Z,99.90
2023-04-23T22:13:09.633Z,99.90
2023-04-23T22:15:36.320Z,99.90
2023-04-23T22:18:03.213Z,99.90
2023-04-23T22:20:30.651Z,99.90
2023-04-23T22:22:57.509Z,99.90
2023-04-23T22:25:24.364Z,99.90
2023-04-23T22:27:51.015Z,99.90
2023-04-23T22:30:17.742Z,99.90
2023-04-23T22:32:44.434Z,99.90
2023-04-23T22:35:11.400Z,99.90
2023-04-23T22:37:38.623Z,99.90
2023-04-23T22:40:07.729Z,99.90
2023-04-23T22:42:34.374Z,99.90
2023-04-23T22:45:01.634Z,99.90
2023-04-23T22:47:28.407Z,99.90
2023-04-23T22:49:55.201Z,99.90
2023-04-23T22:52:21.985Z,99.90
2023-04-23T22:54:48.653Z,99.90
2023-04-23T22:57:15.449Z,99.90
2023-04-23T22:59:42.399Z,99.90
2023-04-23T23:02:09.391Z,99.90
2023-04-23T23:04:38.484Z,99.90
2023-04-23T23:07:05.985Z,99.90
2023-04-23T23:09:32.723Z,99.90
2023-04-23T23:12:02.370Z,99.90
2023-04-23T23:14:29.571Z,99.90
2023-04-23T23:16:59.365Z,99.90
2023-04-23T23:19:30.914Z,99.90
2023-04-23T23:21:57.554Z,99.90
2023-04-23T23:24:24.318Z,99.90
2023-04-23T23:26:51.198Z,99.90
2023-04-23T23:29:17.972Z,99.90
2023-04-23T23:31:44.791Z,99.90
2023-04-23T23:34:12.381Z,99.90
2023-04-23T23:36:39.146Z,99.90
2023-04-23T23:39:06.942Z,99.90
2023-04-23T23:41:33.806Z,99.90
2023-04-23T23:44:00.529Z,99.90
2023-04-23T23:46:27.565Z,99.90
2023-04-23T23:48:54.366Z,99.90
2023-04-23T23:51:21.053Z,99.90
2023-04-23T23:53:47.676Z,99.90
2023-04-23T23:56:14.332Z,99.90
2023-04-23T23:58:40.968Z,99.90
